sensor_id;sensor_type;location;lat;lon;timestamp;pressure;altitude;pressure_sealevel;temperature;humidity
11212;BME280;5663;50.864;12.096;2023-04-15T00:01:02;98381.78;;;9.83;73.19
11212;BME280;5663;50.864;12.096;2023-04-15T00:03:31;98374.19;;;9.80;73.51
11212;BME280;5663;50.864;12.096;2023-04-15T00:05:59;98378.00;;;9.75;74.06
11212;BME280;5663;50.864;12.096;2023-04-15T00:08:27;98373.75;;;9.74;74.14
11212;BME280;5663;50.864;12.096;2023-04-15T00:10:56;98375.31;;;9.76;73.60
11212;BME280;5663;50.864;12.096;2023-04-15T00:13:29;98366.06;;;9.72;74.15
11212;BME280;5663;50.864;12.096;2023-04-15T00:15:57;98374.38;;;9.77;73.81
11212;BME280;5663;50.864;12.096;2023-04-15T00:18:24;98368.34;;;9.77;73.97
11212;BME280;5663;50.864;12.096;2023-04-15T00:20:52;98377.06;;;9.76;73.76
11212;BME280;5663;50.864;12.096;2023-04-15T00:23:20;98371.25;;;9.72;74.05
11212;BME280;5663;50.864;12.096;2023-04-15T00:25:48;98368.56;;;9.74;74.05
11212;BME280;5663;50.864;12.096;2023-04-15T00:28:16;98365.13;;;9.73;74.11
11212;BME280;5663;50.864;12.096;2023-04-15T00:30:46;98364.22;;;9.74;74.09
11212;BME280;5663;50.864;12.096;2023-04-15T00:33:13;98366.06;;;9.72;74.02
11212;BME280;5663;50.864;12.096;2023-04-15T00:35:42;98357.31;;;9.73;73.99
11212;BME280;5663;50.864;12.096;2023-04-15T00:38:10;98364.22;;;9.74;73.90
11212;BME280;5663;50.864;12.096;2023-04-15T00:40:38;98359.19;;;9.71;73.85
11212;BME280;5663;50.864;12.096;2023-04-15T00:43:06;98360.84;;;9.72;73.63
11212;BME280;5663;50.864;12.096;2023-04-15T00:46:03;98362.53;;;9.73;73.72
11212;BME280;5663;50.864;12.096;2023-04-15T00:48:31;98288.31;;;9.29;73.64
11212;BME280;5663;50.864;12.096;2023-04-15T00:50:59;98351.59;;;9.68;73.92
11212;BME280;5663;50.864;12.096;2023-04-15T00:53:27;98354.72;;;9.73;74.07
11212;BME280;5663;50.864;12.096;2023-04-15T00:55:55;98302.38;;;9.40;73.85
11212;BME280;5663;50.864;12.096;2023-04-15T00:58:23;98341.97;;;9.70;74.15
11212;BME280;5663;50.864;12.096;2023-04-15T01:00:51;98336.78;;;9.70;74.19
11212;BME280;5663;50.864;12.096;2023-04-15T01:03:21;98345.09;;;9.75;73.88
11212;BME280;5663;50.864;12.096;2023-04-15T01:05:49;98344.47;;;9.72;73.96
11212;BME280;5663;50.864;12.096;2023-04-15T01:08:25;98345.28;;;9.72;73.84
11212;BME280;5663;50.864;12.096;2023-04-15T01:10:54;98346.34;;;9.70;73.54
11212;BME280;5663;50.864;12.096;2023-04-15T01:13:23;98344.00;;;9.65;73.69
11212;BME280;5663;50.864;12.096;2023-04-15T01:15:52;98340.69;;;9.63;73.65
11212;BME280;5663;50.864;12.096;2023-04-15T01:18:22;98340.34;;;9.55;73.72
11212;BME280;5663;50.864;12.096;2023-04-15T01:20:50;98345.53;;;9.55;74.51
11212;BME280;5663;50.864;12.096;2023-04-15T01:23:18;98327.84;;;9.47;74.00
11212;BME280;5663;50.864;12.096;2023-04-15T01:25:49;98336.09;;;9.54;73.97
11212;BME280;5663;50.864;12.096;2023-04-15T01:28:17;98341.47;;;9.51;74.22
11212;BME280;5663;50.864;12.096;2023-04-15T01:30:45;98337.28;;;9.48;74.32
11212;BME280;5663;50.864;12.096;2023-04-15T01:33:14;98335.75;;;9.46;74.33
11212;BME280;5663;50.864;12.096;2023-04-15T01:35:42;98333.16;;;9.46;74.30
11212;BME280;5663;50.864;12.096;2023-04-15T01:38:12;98337.41;;;9.47;74.24
11212;BME280;5663;50.864;12.096;2023-04-15T01:40:39;98340.81;;;9.47;73.92
11212;BME280;5663;50.864;12.096;2023-04-15T01:43:09;98333.16;;;9.46;74.17
11212;BME280;5663;50.864;12.096;2023-04-15T01:45:36;98331.88;;;9.38;74.05
11212;BME280;5663;50.864;12.096;2023-04-15T01:48:05;98324.16;;;9.37;74.43
11212;BME280;5663;50.864;12.096;2023-04-15T01:50:33;98328.34;;;9.40;74.10
11212;BME280;5663;50.864;12.096;2023-04-15T01:53:02;98321.28;;;9.42;74.58
11212;BME280;5663;50.864;12.096;2023-04-15T01:55:30;98322.94;;;9.43;74.36
11212;BME280;5663;50.864;12.096;2023-04-15T01:57:57;98326.28;;;9.45;74.54
11212;BME280;5663;50.864;12.096;2023-04-15T02:00:27;98329.63;;;9.47;74.32
11212;BME280;5663;50.864;12.096;2023-04-15T02:02:55;98316.81;;;9.44;74.25
11212;BME280;5663;50.864;12.096;2023-04-15T02:05:24;98315.69;;;9.48;74.69
11212;BME280;5663;50.864;12.096;2023-04-15T02:07:52;98318.28;;;9.48;74.56
11212;BME280;5663;50.864;12.096;2023-04-15T02:10:20;98311.44;;;9.47;74.21
11212;BME280;5663;50.864;12.096;2023-04-15T02:12:48;98316.72;;;9.45;74.37
11212;BME280;5663;50.864;12.096;2023-04-15T02:15:15;98310.69;;;9.45;74.36
11212;BME280;5663;50.864;12.096;2023-04-15T02:17:44;98307.38;;;9.43;74.35
11212;BME280;5663;50.864;12.096;2023-04-15T02:20:18;98305.72;;;9.42;74.57
11212;BME280;5663;50.864;12.096;2023-04-15T02:22:46;98305.72;;;9.42;74.56
11212;BME280;5663;50.864;12.096;2023-04-15T02:25:14;98277.41;;;9.24;74.40
11212;BME280;5663;50.864;12.096;2023-04-15T02:27:43;98302.38;;;9.40;74.66
11212;BME280;5663;50.864;12.096;2023-04-15T02:30:12;98294.72;;;9.38;74.46
11212;BME280;5663;50.864;12.096;2023-04-15T02:32:40;98299.78;;;9.40;74.38
11212;BME280;5663;50.864;12.096;2023-04-15T02:35:11;98299.06;;;9.37;74.88
11212;BME280;5663;50.864;12.096;2023-04-15T02:37:39;98290.72;;;9.32;74.56
11212;BME280;5663;50.864;12.096;2023-04-15T02:40:11;98295.72;;;9.35;74.59
11212;BME280;5663;50.864;12.096;2023-04-15T02:42:39;98294.91;;;9.35;74.85
11212;BME280;5663;50.864;12.096;2023-04-15T02:45:08;98292.19;;;9.36;74.52
11212;BME280;5663;50.864;12.096;2023-04-15T02:47:37;98291.47;;;9.34;74.76
11212;BME280;5663;50.864;12.096;2023-04-15T02:50:08;98265.56;;;9.20;74.55
11212;BME280;5663;50.864;12.096;2023-04-15T02:52:40;98285.34;;;9.35;74.51
11212;BME280;5663;50.864;12.096;2023-04-15T02:55:08;98287.94;;;9.35;74.44
11212;BME280;5663;50.864;12.096;2023-04-15T02:57:36;98272.41;;;9.21;74.50
11212;BME280;5663;50.864;12.096;2023-04-15T03:00:05;98285.63;;;9.31;74.61
11212;BME280;5663;50.864;12.096;2023-04-15T03:02:35;98291.78;;;9.30;74.91
11212;BME280;5663;50.864;12.096;2023-04-15T03:05:04;98274.09;;;9.22;74.68
11212;BME280;5663;50.864;12.096;2023-04-15T03:07:32;98274.09;;;9.22;74.84
11212;BME280;5663;50.864;12.096;2023-04-15T03:10:01;98279.91;;;9.26;74.64
11212;BME280;5663;50.864;12.096;2023-04-15T03:12:29;98274.63;;;9.27;75.18
11212;BME280;5663;50.864;12.096;2023-04-15T03:14:58;98270.38;;;9.26;74.99
11212;BME280;5663;50.864;12.096;2023-04-15T03:17:27;98267.03;;;9.24;74.74
11212;BME280;5663;50.864;12.096;2023-04-15T03:19:55;98266.31;;;9.22;74.86
11212;BME280;5663;50.864;12.096;2023-04-15T03:22:23;98265.56;;;9.20;75.16
11212;BME280;5663;50.864;12.096;2023-04-15T03:24:51;98265.56;;;9.20;75.15
11212;BME280;5663;50.864;12.096;2023-04-15T03:27:21;98255.19;;;9.20;74.90
11212;BME280;5663;50.864;12.096;2023-04-15T03:29:49;98253.53;;;9.19;74.88
11212;BME280;5663;50.864;12.096;2023-04-15T03:32:16;98248.53;;;9.16;75.22
11212;BME280;5663;50.864;12.096;2023-04-15T03:34:44;98254.66;;;9.15;75.54
11212;BME280;5663;50.864;12.096;2023-04-15T03:37:12;98251.94;;;9.17;75.01
11212;BME280;5663;50.864;12.096;2023-04-15T03:39:40;98245.94;;;9.16;75.47
11212;BME280;5663;50.864;12.096;2023-04-15T03:42:08;98249.47;;;9.15;75.20
11212;BME280;5663;50.864;12.096;2023-04-15T03:44:37;98246.88;;;9.15;75.48
11212;BME280;5663;50.864;12.096;2023-04-15T03:47:05;98257.06;;;9.18;74.77
11212;BME280;5663;50.864;12.096;2023-04-15T03:49:33;98248.34;;;9.19;75.15
11212;BME280;5663;50.864;12.096;2023-04-15T03:52:00;98242.31;;;9.19;74.70
11212;BME280;5663;50.864;12.096;2023-04-15T03:54:28;98250.41;;;9.14;75.45
11212;BME280;5663;50.864;12.096;2023-04-15T03:56:55;98255.38;;;9.17;74.98
11212;BME280;5663;50.864;12.096;2023-04-15T03:59:23;98260.38;;;9.20;74.59
11212;BME280;5663;50.864;12.096;2023-04-15T04:01:53;98253.53;;;9.19;75.08
11212;BME280;5663;50.864;12.096;2023-04-15T04:04:21;98257.78;;;9.20;74.99
11212;BME280;5663;50.864;12.096;2023-04-15T04:06:53;98249.06;;;9.21;75.20
11212;BME280;5663;50.864;12.096;2023-04-15T04:09:21;98241.28;;;9.21;74.76
11212;BME280;5663;50.864;12.096;2023-04-15T04:11:48;98237.78;;;9.22;74.70
11212;BME280;5663;50.864;12.096;2023-04-15T04:14:16;98234.25;;;9.23;75.12
11212;BME280;5663;50.864;12.096;2023-04-15T04:16:44;98230.81;;;9.23;74.74
11212;BME280;5663;50.864;12.096;2023-04-15T04:19:13;98219.69;;;9.21;74.61
11212;BME280;5663;50.864;12.096;2023-04-15T04:21:44;98217.22;;;9.19;74.95
11212;BME280;5663;50.864;12.096;2023-04-15T04:24:12;98220.75;;;9.18;74.73
11212;BME280;5663;50.864;12.096;2023-04-15T04:26:40;98220.81;;;9.17;74.88
11212;BME280;5663;50.864;12.096;2023-04-15T04:29:08;98232.97;;;9.16;75.13
11212;BME280;5663;50.864;12.096;2023-04-15T04:31:36;98219.28;;;9.14;74.79
11212;BME280;5663;50.864;12.096;2023-04-15T04:34:04;98222.78;;;9.13;75.45
11212;BME280;5663;50.864;12.096;2023-04-15T04:36:33;98227.97;;;9.13;75.63
11212;BME280;5663;50.864;12.096;2023-04-15T04:39:01;98216.13;;;9.09;75.29
11212;BME280;5663;50.864;12.096;2023-04-15T04:41:29;98228.19;;;9.10;75.26
11212;BME280;5663;50.864;12.096;2023-04-15T04:44:00;98236.88;;;9.09;75.68
11212;BME280;5663;50.864;12.096;2023-04-15T04:46:28;98233.75;;;9.04;75.44
11212;BME280;5663;50.864;12.096;2023-04-15T04:48:56;98250.06;;;9.06;75.92
11212;BME280;5663;50.864;12.096;2023-04-15T04:51:24;98247.72;;;9.01;76.17
11212;BME280;5663;50.864;12.096;2023-04-15T04:53:53;98248.56;;;9.02;76.31
11212;BME280;5663;50.864;12.096;2023-04-15T04:56:22;98248.47;;;9.03;76.24
11212;BME280;5663;50.864;12.096;2023-04-15T04:58:49;98250.94;;;9.05;75.67
11212;BME280;5663;50.864;12.096;2023-04-15T05:01:17;98254.19;;;9.08;76.16
11212;BME280;5663;50.864;12.096;2023-04-15T05:03:45;98246.59;;;9.05;75.91
11212;BME280;5663;50.864;12.096;2023-04-15T05:06:13;98245.78;;;9.05;76.10
11212;BME280;5663;50.864;12.096;2023-04-15T05:08:41;98262.09;;;9.07;75.74
11212;BME280;5663;50.864;12.096;2023-04-15T05:11:13;98258.44;;;9.09;75.89
11212;BME280;5663;50.864;12.096;2023-04-15T05:13:41;98261.03;;;9.09;75.93
11212;BME280;5663;50.864;12.096;2023-04-15T05:16:08;98253.25;;;9.09;76.12
11212;BME280;5663;50.864;12.096;2023-04-15T05:18:36;98254.31;;;9.07;76.16
11212;BME280;5663;50.864;12.096;2023-04-15T05:21:04;98261.78;;;9.11;76.15
11212;BME280;5663;50.864;12.096;2023-04-15T05:23:33;98259.09;;;9.13;75.92
11212;BME280;5663;50.864;12.096;2023-04-15T05:26:01;98253.91;;;9.13;75.91
11212;BME280;5663;50.864;12.096;2023-04-15T05:28:30;98253.91;;;9.13;76.45
11212;BME280;5663;50.864;12.096;2023-04-15T05:30:57;98260.78;;;9.14;75.83
11212;BME280;5663;50.864;12.096;2023-04-15T05:33:25;98248.94;;;9.10;76.23
11212;BME280;5663;50.864;12.096;2023-04-15T05:35:53;98258.06;;;9.16;76.02
11212;BME280;5663;50.864;12.096;2023-04-15T05:38:21;98271.88;;;9.16;76.12
11212;BME280;5663;50.864;12.096;2023-04-15T05:40:49;98272.81;;;9.15;75.98
11212;BME280;5663;50.864;12.096;2023-04-15T05:43:17;98273.75;;;9.14;76.34
11212;BME280;5663;50.864;12.096;2023-04-15T05:45:46;98277.25;;;9.13;76.81
11212;BME280;5663;50.864;12.096;2023-04-15T05:48:13;98278.00;;;9.15;76.39
11212;BME280;5663;50.864;12.096;2023-04-15T05:50:41;98270.94;;;9.17;76.36
11212;BME280;5663;50.864;12.096;2023-04-15T05:53:10;98274.28;;;9.19;75.99
11212;BME280;5663;50.864;12.096;2023-04-15T05:55:37;98276.88;;;9.19;76.55
11212;BME280;5663;50.864;12.096;2023-04-15T05:58:05;98265.75;;;9.17;76.17
11212;BME280;5663;50.864;12.096;2023-04-15T06:00:33;98276.69;;;9.22;76.31
11212;BME280;5663;50.864;12.096;2023-04-15T06:03:03;98275.75;;;9.23;75.88
11212;BME280;5663;50.864;12.096;2023-04-15T06:05:31;98279.06;;;9.25;76.37
11212;BME280;5663;50.864;12.096;2023-04-15T06:08:00;98280.75;;;9.26;76.23
11212;BME280;5663;50.864;12.096;2023-04-15T06:10:27;98278.16;;;9.26;76.41
11212;BME280;5663;50.864;12.096;2023-04-15T06:12:55;98278.22;;;9.25;76.53
11212;BME280;5663;50.864;12.096;2023-04-15T06:15:23;98283.41;;;9.25;76.17
11212;BME280;5663;50.864;12.096;2023-04-15T06:17:51;98274.09;;;9.22;76.26
11212;BME280;5663;50.864;12.096;2023-04-15T06:20:21;98275.56;;;9.26;76.40
11212;BME280;5663;50.864;12.096;2023-04-15T06:22:49;98274.44;;;9.30;76.40
11212;BME280;5663;50.864;12.096;2023-04-15T06:25:17;98275.97;;;9.33;76.24
11212;BME280;5663;50.864;12.096;2023-04-15T06:27:45;98275.91;;;9.34;76.36
11212;BME280;5663;50.864;12.096;2023-04-15T06:30:13;98273.31;;;9.34;76.11
11212;BME280;5663;50.864;12.096;2023-04-15T06:32:41;98270.59;;;9.36;76.46
11212;BME280;5663;50.864;12.096;2023-04-15T06:35:09;98242.31;;;9.19;76.39
11212;BME280;5663;50.864;12.096;2023-04-15T06:37:38;98279.97;;;9.38;76.11
11212;BME280;5663;50.864;12.096;2023-04-15T06:40:08;98277.19;;;9.42;76.48
11212;BME280;5663;50.864;12.096;2023-04-15T06:42:36;98271.88;;;9.43;76.04
11212;BME280;5663;50.864;12.096;2023-04-15T06:45:05;98275.19;;;9.45;76.29
11212;BME280;5663;50.864;12.096;2023-04-15T06:47:34;98268.34;;;9.44;75.94
11212;BME280;5663;50.864;12.096;2023-04-15T06:50:02;98272.72;;;9.44;76.44
11212;BME280;5663;50.864;12.096;2023-04-15T06:52:30;98264.94;;;9.44;76.38
11212;BME280;5663;50.864;12.096;2023-04-15T06:55:00;98272.72;;;9.44;76.25
11212;BME280;5663;50.864;12.096;2023-04-15T06:57:27;98263.16;;;9.44;76.18
11212;BME280;5663;50.864;12.096;2023-04-15T06:59:55;98262.34;;;9.44;76.22
11212;BME280;5663;50.864;12.096;2023-04-15T07:02:24;98275.13;;;9.47;76.25
11212;BME280;5663;50.864;12.096;2023-04-15T07:04:52;98266.50;;;9.46;76.37
11212;BME280;5663;50.864;12.096;2023-04-15T07:07:20;98276.13;;;9.44;76.85
11212;BME280;5663;50.864;12.096;2023-04-15T07:09:48;98286.22;;;9.49;76.54
11212;BME280;5663;50.864;12.096;2023-04-15T07:12:18;98287.91;;;9.50;76.85
11212;BME280;5663;50.864;12.096;2023-04-15T07:14:47;98305.97;;;9.51;76.78
11212;BME280;5663;50.864;12.096;2023-04-15T07:17:14;98296.41;;;9.52;76.36
11212;BME280;5663;50.864;12.096;2023-04-15T07:19:42;98291.97;;;9.54;76.43
11212;BME280;5663;50.864;12.096;2023-04-15T07:22:10;98282.06;;;9.46;76.73
11212;BME280;5663;50.864;12.096;2023-04-15T07:24:38;98302.25;;;9.55;76.51
11212;BME280;5663;50.864;12.096;2023-04-15T07:27:06;98301.59;;;9.52;76.64
11212;BME280;5663;50.864;12.096;2023-04-15T07:29:36;98305.47;;;9.59;76.54
11212;BME280;5663;50.864;12.096;2023-04-15T07:32:04;98301.00;;;9.61;76.25
11212;BME280;5663;50.864;12.096;2023-04-15T07:34:32;98312.13;;;9.63;76.21
11212;BME280;5663;50.864;12.096;2023-04-15T07:37:00;98313.72;;;9.66;76.21
11212;BME280;5663;50.864;12.096;2023-04-15T07:39:29;98288.81;;;9.49;76.23
11212;BME280;5663;50.864;12.096;2023-04-15T07:41:57;98317.84;;;9.68;76.22
11212;BME280;5663;50.864;12.096;2023-04-15T07:44:26;98311.00;;;9.67;76.41
11212;BME280;5663;50.864;12.096;2023-04-15T07:46:56;98313.31;;;9.72;76.45
11212;BME280;5663;50.864;12.096;2023-04-15T07:49:24;98307.47;;;9.68;76.04
11212;BME280;5663;50.864;12.096;2023-04-15T07:51:52;98319.31;;;9.72;76.27
11212;BME280;5663;50.864;12.096;2023-04-15T07:54:20;98317.66;;;9.71;75.96
11212;BME280;5663;50.864;12.096;2023-04-15T07:56:48;98306.00;;;9.64;76.29
11212;BME280;5663;50.864;12.096;2023-04-15T07:59:16;98315.59;;;9.76;76.09
11212;BME280;5663;50.864;12.096;2023-04-15T08:01:47;98321.53;;;9.78;76.12
11212;BME280;5663;50.864;12.096;2023-04-15T08:04:16;98324.78;;;9.82;76.24
11212;BME280;5663;50.864;12.096;2023-04-15T08:06:44;98317.69;;;9.84;76.12
11212;BME280;5663;50.864;12.096;2023-04-15T08:09:14;98334.84;;;9.86;76.28
11212;BME280;5663;50.864;12.096;2023-04-15T08:11:41;98331.31;;;9.87;76.36
11212;BME280;5663;50.864;12.096;2023-04-15T08:14:09;98331.97;;;9.91;76.35
11212;BME280;5663;50.864;12.096;2023-04-15T08:16:38;98325.81;;;9.92;76.45
11212;BME280;5663;50.864;12.096;2023-04-15T08:19:05;98333.53;;;9.94;76.27
11212;BME280;5663;50.864;12.096;2023-04-15T08:21:35;98331.66;;;9.96;76.67
11212;BME280;5663;50.864;12.096;2023-04-15T08:24:04;98335.00;;;9.98;76.52
11212;BME280;5663;50.864;12.096;2023-04-15T08:26:33;98338.31;;;10.00;76.47
11212;BME280;5663;50.864;12.096;2023-04-15T08:29:01;98336.53;;;10.00;76.63
11212;BME280;5663;50.864;12.096;2023-04-15T08:31:29;98342.47;;;10.02;76.34
11212;BME280;5663;50.864;12.096;2023-04-15T08:33:57;98343.31;;;10.03;76.63
11212;BME280;5663;50.864;12.096;2023-04-15T08:36:26;98346.63;;;10.05;76.39
11212;BME280;5663;50.864;12.096;2023-04-15T08:38:55;98346.44;;;10.08;76.53
11212;BME280;5663;50.864;12.096;2023-04-15T08:41:24;98332.19;;;10.01;76.36
11212;BME280;5663;50.864;12.096;2023-04-15T08:43:55;98347.72;;;10.15;76.70
11212;BME280;5663;50.864;12.096;2023-04-15T08:46:23;98350.09;;;10.18;76.31
11212;BME280;5663;50.864;12.096;2023-04-15T08:48:56;98345.63;;;10.20;76.35
11212;BME280;5663;50.864;12.096;2023-04-15T08:51:24;98335.88;;;10.24;76.31
11212;BME280;5663;50.864;12.096;2023-04-15T08:53:55;98341.72;;;10.27;76.41
11212;BME280;5663;50.864;12.096;2023-04-15T08:56:24;98347.69;;;10.29;76.60
11212;BME280;5663;50.864;12.096;2023-04-15T08:58:52;98338.75;;;10.33;76.80
11212;BME280;5663;50.864;12.096;2023-04-15T09:01:20;98341.84;;;10.39;76.78
11212;BME280;5663;50.864;12.096;2023-04-15T09:03:49;98340.09;;;10.39;76.62
11212;BME280;5663;50.864;12.096;2023-04-15T09:06:18;98351.00;;;10.44;76.71
11212;BME280;5663;50.864;12.096;2023-04-15T09:08:46;98352.47;;;10.48;76.71
11212;BME280;5663;50.864;12.096;2023-04-15T09:11:16;98347.19;;;10.50;76.74
11212;BME280;5663;50.864;12.096;2023-04-15T09:13:45;98350.28;;;10.55;76.75
11212;BME280;5663;50.864;12.096;2023-04-15T09:16:13;98345.09;;;10.55;76.61
11212;BME280;5663;50.864;12.096;2023-04-15T09:18:41;98351.75;;;10.59;76.67
11212;BME280;5663;50.864;12.096;2023-04-15T09:21:10;98353.19;;;10.63;77.01
11212;BME280;5663;50.864;12.096;2023-04-15T09:23:40;98357.56;;;10.63;76.93
11212;BME280;5663;50.864;12.096;2023-04-15T09:26:08;98361.72;;;10.65;76.77
11212;BME280;5663;50.864;12.096;2023-04-15T09:28:42;98344.47;;;10.51;76.60
11212;BME280;5663;50.864;12.096;2023-04-15T09:31:10;98337.91;;;10.46;76.50
11212;BME280;5663;50.864;12.096;2023-04-15T09:33:53;98337.16;;;10.44;76.50
11212;BME280;5663;50.864;12.096;2023-04-15T09:36:22;98368.81;;;10.63;76.32
11212;BME280;5663;50.864;12.096;2023-04-15T09:38:55;98367.84;;;10.64;76.33
11212;BME280;5663;50.864;12.096;2023-04-15T09:41:24;98363.41;;;10.66;76.36
11212;BME280;5663;50.864;12.096;2023-04-15T09:43:55;98374.50;;;10.68;76.32
11212;BME280;5663;50.864;12.096;2023-04-15T09:46:41;98347.19;;;10.50;76.48
11212;BME280;5663;50.864;12.096;2023-04-15T09:49:10;98379.19;;;10.76;76.42
11212;BME280;5663;50.864;12.096;2023-04-15T09:51:38;98374.81;;;10.76;76.61
11212;BME280;5663;50.864;12.096;2023-04-15T09:54:06;98372.78;;;10.81;76.52
11212;BME280;5663;50.864;12.096;2023-04-15T09:56:33;98343.13;;;10.58;76.60
11212;BME280;5663;50.864;12.096;2023-04-15T09:59:05;98366.72;;;10.81;76.51
11212;BME280;5663;50.864;12.096;2023-04-15T10:01:33;98369.22;;;10.82;76.50
11212;BME280;5663;50.864;12.096;2023-04-15T10:04:03;98372.34;;;10.88;76.63
11212;BME280;5663;50.864;12.096;2023-04-15T10:06:32;98351.13;;;10.68;76.52
11212;BME280;5663;50.864;12.096;2023-04-15T10:09:01;98382.53;;;10.91;76.55
11212;BME280;5663;50.864;12.096;2023-04-15T10:11:30;98383.47;;;10.90;76.62
11212;BME280;5663;50.864;12.096;2023-04-15T10:13:58;98381.78;;;10.89;76.64
11212;BME280;5663;50.864;12.096;2023-04-15T10:16:28;98398.34;;;10.88;76.51
11212;BME280;5663;50.864;12.096;2023-04-15T10:19:01;98395.03;;;10.85;76.55
11212;BME280;5663;50.864;12.096;2023-04-15T10:21:29;98399.59;;;10.82;76.31
11212;BME280;5663;50.864;12.096;2023-04-15T10:23:57;98389.41;;;10.79;76.36
11212;BME280;5663;50.864;12.096;2023-04-15T10:26:25;98389.09;;;10.83;76.50
11212;BME280;5663;50.864;12.096;2023-04-15T10:28:54;98393.34;;;10.84;76.51
11212;BME280;5663;50.864;12.096;2023-04-15T10:31:23;98393.56;;;10.81;76.63
11212;BME280;5663;50.864;12.096;2023-04-15T10:33:53;98394.09;;;10.87;76.74
11212;BME280;5663;50.864;12.096;2023-04-15T10:36:21;98389.41;;;10.92;76.50
11212;BME280;5663;50.864;12.096;2023-04-15T10:38:49;98391.06;;;10.93;76.35
11212;BME280;5663;50.864;12.096;2023-04-15T10:41:19;98396.88;;;10.96;76.32
11212;BME280;5663;50.864;12.096;2023-04-15T10:43:49;98392.75;;;10.94;76.15
11212;BME280;5663;50.864;12.096;2023-04-15T10:46:21;98400.31;;;10.97;76.34
11212;BME280;5663;50.864;12.096;2023-04-15T10:48:52;98412.41;;;10.98;76.17
11212;BME280;5663;50.864;12.096;2023-04-15T10:51:27;98401.06;;;10.99;76.12
11212;BME280;5663;50.864;12.096;2023-04-15T10:53:56;98399.16;;;11.01;76.26
11212;BME280;5663;50.864;12.096;2023-04-15T10:56:27;98345.19;;;10.66;76.44
11212;BME280;5663;50.864;12.096;2023-04-15T10:58:58;98411.66;;;11.08;76.56
11212;BME280;5663;50.864;12.096;2023-04-15T11:01:52;98393.97;;;11.01;76.88
11212;BME280;5663;50.864;12.096;2023-04-15T11:04:54;98398.88;;;11.18;76.67
11212;BME280;5663;50.864;12.096;2023-04-15T11:07:37;98395.81;;;11.24;77.02
11212;BME280;5663;50.864;12.096;2023-04-15T11:13:20;98401.75;;;11.39;76.72
11212;BME280;5663;50.864;12.096;2023-04-15T11:15:49;98381.34;;;11.33;76.84
11212;BME280;5663;50.864;12.096;2023-04-15T11:18:20;98408.06;;;11.48;76.87
11212;BME280;5663;50.864;12.096;2023-04-15T11:20:55;98412.84;;;11.54;77.21
11212;BME280;5663;50.864;12.096;2023-04-15T11:23:30;98408.88;;;11.61;77.01
11212;BME280;5663;50.864;12.096;2023-04-15T11:25:59;98408.66;;;11.64;77.05
11212;BME280;5663;50.864;12.096;2023-04-15T11:28:29;98411.69;;;11.58;76.58
11212;BME280;5663;50.864;12.096;2023-04-15T11:30:57;98416.16;;;11.56;76.49
11212;BME280;5663;50.864;12.096;2023-04-15T11:33:26;98424.50;;;11.61;76.52
11212;BME280;5663;50.864;12.096;2023-04-15T11:35:56;98431.59;;;11.59;76.38
11212;BME280;5663;50.864;12.096;2023-04-15T11:38:24;98424.72;;;11.58;76.53
11212;BME280;5663;50.864;12.096;2023-04-15T11:40:52;98435.84;;;11.60;76.50
11212;BME280;5663;50.864;12.096;2023-04-15T11:43:21;98430.75;;;11.58;76.30
11212;BME280;5663;50.864;12.096;2023-04-15T11:45:51;98403.94;;;11.45;76.10
11212;BME280;5663;50.864;12.096;2023-04-15T11:48:22;98413.06;;;11.51;76.22
11212;BME280;5663;50.864;12.096;2023-04-15T11:50:57;98437.41;;;11.63;76.29
11212;BME280;5663;50.864;12.096;2023-04-15T11:53:36;98438.25;;;11.63;75.91
11212;BME280;5663;50.864;12.096;2023-04-15T11:56:05;98444.41;;;11.62;76.04
11212;BME280;5663;50.864;12.096;2023-04-15T11:58:34;98443.91;;;11.57;76.11
11212;BME280;5663;50.864;12.096;2023-04-15T12:01:04;98449.59;;;11.62;76.14
11212;BME280;5663;50.864;12.096;2023-04-15T12:03:37;98449.69;;;11.60;76.40
11212;BME280;5663;50.864;12.096;2023-04-15T12:06:14;98454.31;;;11.57;75.87
11212;BME280;5663;50.864;12.096;2023-04-15T12:09:04;98445.56;;;11.58;76.15
11212;BME280;5663;50.864;12.096;2023-04-15T12:11:39;98457.63;;;11.59;76.29
11212;BME280;5663;50.864;12.096;2023-04-15T12:14:10;98450.75;;;11.58;76.12
11212;BME280;5663;50.864;12.096;2023-04-15T12:16:40;98451.78;;;11.55;75.82
11212;BME280;5663;50.864;12.096;2023-04-15T12:19:12;98459.53;;;11.57;76.19
11212;BME280;5663;50.864;12.096;2023-04-15T12:21:44;98463.47;;;11.50;76.24
11212;BME280;5663;50.864;12.096;2023-04-15T12:24:13;98463.03;;;11.56;76.33
11212;BME280;5663;50.864;12.096;2023-04-15T12:26:45;98473.44;;;11.56;76.26
11212;BME280;5663;50.864;12.096;2023-04-15T12:29:15;98488.88;;;11.59;76.10
11212;BME280;5663;50.864;12.096;2023-04-15T12:31:47;98477.44;;;11.62;76.56
11212;BME280;5663;50.864;12.096;2023-04-15T12:34:17;98485.31;;;11.60;76.40
11212;BME280;5663;50.864;12.096;2023-04-15T12:36:46;98484.09;;;11.66;76.46
11212;BME280;5663;50.864;12.096;2023-04-15T12:39:14;98484.91;;;11.66;76.32
11212;BME280;5663;50.864;12.096;2023-04-15T12:41:42;98489.06;;;11.69;76.58
11212;BME280;5663;50.864;12.096;2023-04-15T12:44:09;98485.28;;;11.73;76.34
11212;BME280;5663;50.864;12.096;2023-04-15T12:46:37;98481.78;;;11.74;76.22
11212;BME280;5663;50.864;12.096;2023-04-15T12:49:05;98489.69;;;11.72;76.72
11212;BME280;5663;50.864;12.096;2023-04-15T12:51:33;98489.59;;;11.74;76.79
11212;BME280;5663;50.864;12.096;2023-04-15T12:54:02;98495.41;;;11.77;77.08
11212;BME280;5663;50.864;12.096;2023-04-15T12:56:30;98493.31;;;11.82;76.94
11212;BME280;5663;50.864;12.096;2023-04-15T12:58:58;98496.44;;;11.88;76.93
11212;BME280;5663;50.864;12.096;2023-04-15T13:01:26;98499.06;;;11.88;76.91
11212;BME280;5663;50.864;12.096;2023-04-15T13:03:55;98513.75;;;11.89;77.02
11212;BME280;5663;50.864;12.096;2023-04-15T13:06:23;98509.97;;;11.93;77.12
11212;BME280;5663;50.864;12.096;2023-04-15T13:08:51;98508.13;;;11.95;77.06
11212;BME280;5663;50.864;12.096;2023-04-15T13:11:21;98508.13;;;11.95;76.78
11212;BME280;5663;50.864;12.096;2023-04-15T13:13:50;98467.69;;;11.76;76.95
11212;BME280;5663;50.864;12.096;2023-04-15T13:16:18;98506.75;;;12.02;77.12
11212;BME280;5663;50.864;12.096;2023-04-15T13:18:47;98502.03;;;12.07;77.05
11212;BME280;5663;50.864;12.096;2023-04-15T13:21:15;98488.22;;;11.94;77.19